State Line, IN (47982)

3:49 PM EDT on April 27, 2015 (GMT -0400)
Clary Farm | | Change Station
CLOSE
Current Station
Personal Weather Station
Location: Danville, IL
Elevation: 627 ft
Nearby Weather Stations

Elev 627 ft 40.15 °N, 87.58 °W | Updated 6 seconds ago

Clear
Clear
57.6 °F
Feels Like 57.6 °F
N
14.8
Wind Variable Wind from NE
Gusts 15.0 mph

Today
High -- | Low -- °F
--% Chance of Precip.
Yesterday
High -- | Low -- °F
Precip. -- in
6:55 AM 8:40 PM
Waxing Gibbous, 67% visible
Pressure 30.06 in
Visibility 10.0 miles
Clouds Clear
Dew Point 40 °F
Humidity 51%
Rainfall 0.00 in
Snow Depth Not available.
UV 9 out of 12
Pollen 9.50 out of 12
Air Quality Not available.
Flu Activity Local Activity
METAR KDNV 271935Z AUTO 36016G25KT 10SM CLR 14/03 A3006 RMK AO2 T01360031

More Conditions Fewer Conditions

Pressure 30.06 in
Visibility 10.0 miles
Clouds Clear
Dew Point 40 °F
Humidity 51%
Rainfall 0.00 in
Snow Depth Not available.
UV 9 out of 12
Pollen 9.50 out of 12
Air Quality Not available.
Flu Activity Local Activity
METAR KDNV 271935Z AUTO 36016G25KT 10SM CLR 14/03 A3006 RMK AO2 T01360031

More Conditions Fewer Conditions

10-Day Weather Forecast

Almanac

Astronomy

Apr. 27, 2015 Rise Set
Actual Time
Civil Twilight
Nautical Twilight
Astronomical Twilight
Moon
Length of Visible Light
Length of Day
Tomorrow will be .
, % of the Moon is Illuminated

Today's Extremes

State Highs State Lows

Community

WunderPhotos

Upload Photos

1,817,414 photos uploaded!

WunderBlogs® & News

Nearby

Air Quality

  Air Quality AQ Index Pollutant
Not available.

Snow Depth

Station Depth Elevation

Earthquake Activity

City Distance Mag. Time & Date
Minimum magnitude displayed is 2.5.

Coastal Water Temperatures

Place Temperature

Stations

Nearby Weather Stations

Station Location Temp. Windchill Dew Point Humidity Wind Precip. Elev Updated Type